Time;durP1;ratioP1;P1;durP2;ratioP2;P2;SDS_P1;SDS_P2;PMS_P1;PMS_P2;Temp;Humidity;BMP_temperature;BMP_pressure;BME280_temperature;BME280_humidity;BME280_pressure;Samples;Min_cycle;Max_cycle;Signal;HPM_P1;HPM_P2
2022/05/18 00:02:00;;;;;;;7.20;1.97;;;18.60;99.90;;;;;;5092380;28;20179;-66
2022/05/18 00:04:28;;;;;;;5.87;1.40;;;18.60;99.90;;;;;;5091822;28;20236;-66
2022/05/18 00:06:56;;;;;;;6.43;1.33;;;19.00;99.90;;;;;;5090586;28;20671;-66
2022/05/18 00:09:24;;;;;;;3.90;1.07;;;19.00;99.90;;;;;;5090894;28;20182;-66
2022/05/18 00:11:52;;;;;;;4.90;1.30;;;18.90;99.90;;;;;;5092096;28;20263;-66
2022/05/18 00:14:20;;;;;;;7.23;1.03;;;19.10;99.90;;;;;;5092008;28;20179;-66
2022/05/18 00:16:47;;;;;;;9.37;1.57;;;19.50;99.90;;;;;;5091917;28;20179;-66
2022/05/18 00:19:15;;;;;;;2.67;1.13;;;19.80;99.90;;;;;;5091890;28;20294;-66
2022/05/18 00:21:44;;;;;;;3.13;1.20;;;20.10;99.90;;;;;;5091430;28;20189;-68
2022/05/18 00:24:13;;;;;;;7.53;1.07;;;20.30;99.90;;;;;;5092697;28;20651;-68
2022/05/18 00:26:41;;;;;;;2.70;1.00;;;20.40;99.90;;;;;;5091090;28;20589;-67
2022/05/18 00:29:09;;;;;;;4.27;1.00;;;20.60;99.90;;;;;;5091090;28;20539;-67
2022/05/18 00:31:37;;;;;;;1.83;0.67;;;21.30;99.90;;;;;;5092894;28;20190;-68
2022/05/18 00:34:04;;;;;;;4.30;0.80;;;21.40;99.90;;;;;;5092898;28;20667;-68
2022/05/18 00:36:31;;;;;;;1.40;0.70;;;21.30;99.90;;;;;;5093207;28;20171;-68
2022/05/18 00:38:59;;;;;;;2.87;0.60;;;21.40;99.90;;;;;;5092816;28;20254;-68
2022/05/18 00:41:27;;;;;;;4.07;0.70;;;21.40;99.90;;;;;;5092895;28;20186;-67
2022/05/18 00:43:56;;;;;;;1.80;1.00;;;21.60;99.90;;;;;;5092725;28;20257;-66
2022/05/18 00:46:23;;;;;;;4.43;1.07;;;21.80;99.90;;;;;;5093451;28;20175;-68
2022/05/18 00:48:52;;;;;;;2.67;0.50;;;21.10;99.90;;;;;;5092943;28;20175;-68
2022/05/18 00:51:25;;;;;;;1.63;0.70;;;21.00;99.90;;;;;;5091356;28;20211;-70
2022/05/18 00:54:08;;;;;;;1.43;0.47;;;20.90;99.90;;;;;;5072958;28;20172;-69
2022/05/18 00:56:46;;;;;;;3.27;0.83;;;21.30;99.90;;;;;;5070051;28;20575;-69
2022/05/18 00:59:29;;;;;;;2.17;0.70;;;21.30;99.90;;;;;;5072544;28;20223;-69
2022/05/18 01:01:59;;;;;;;4.37;0.80;;;21.30;99.90;;;;;;5072731;28;20178;-69
2022/05/18 01:04:27;;;;;;;2.27;0.83;;;20.70;99.90;;;;;;5071164;28;20528;-69
2022/05/18 01:07:08;;;;;;;2.47;0.53;;;21.30;99.90;;;;;;5071353;28;20195;-69
2022/05/18 01:09:41;;;;;;;2.90;1.10;;;21.60;99.90;;;;;;5076428;28;20172;-69
2022/05/18 01:12:11;;;;;;;4.90;1.13;;;22.00;99.90;;;;;;5076955;28;20171;-70
2022/05/18 01:15:03;;;;;;;2.70;0.70;;;21.90;99.90;;;;;;5076666;28;20514;-70
2022/05/18 01:17:35;;;;;;;4.67;1.03;;;21.90;99.90;;;;;;5076710;28;20180;-69
2022/05/18 01:20:06;;;;;;;2.23;0.80;;;22.20;99.90;;;;;;5076578;28;20226;-69
2022/05/18 01:22:58;;;;;;;2.17;0.90;;;22.50;99.90;;;;;;5076569;28;20168;-69
2022/05/18 01:25:58;;;;;;;3.00;0.93;;;22.50;99.90;;;;;;5076514;28;20630;-69
2022/05/18 01:28:30;;;;;;;2.57;0.67;;;22.40;99.90;;;;;;5076903;28;20172;-68
2022/05/18 01:30:57;;;;;;;4.73;0.60;;;21.80;99.90;;;;;;5076457;28;20709;-68
2022/05/18 01:33:25;;;;;;;1.83;0.40;;;21.60;99.90;;;;;;5076738;28;20174;-68
2022/05/18 01:35:53;;;;;;;4.63;0.83;;;21.80;99.90;;;;;;5076118;28;20229;-68
2022/05/18 01:38:20;;;;;;;4.17;0.53;;;22.20;99.20;;;;;;5076625;28;20633;-68
2022/05/18 01:41:10;;;;;;;0.87;0.30;;;22.20;99.90;;;;;;5076332;28;20168;-68
2022/05/18 01:43:48;;;;;;;1.40;0.50;;;22.20;97.30;;;;;;5076130;28;20172;-69
2022/05/18 01:46:18;;;;;;;3.33;0.70;;;22.00;99.30;;;;;;5076228;28;20178;-69
2022/05/18 01:48:52;;;;;;;1.70;0.60;;;22.20;97.60;;;;;;5076129;28;20176;-70
2022/05/18 01:51:28;;;;;;;1.60;0.47;;;21.80;97.30;;;;;;5076104;28;20180;-69
2022/05/18 01:53:55;;;;;;;1.43;0.60;;;21.80;97.60;;;;;;5076472;28;20171;-69
2022/05/18 01:56:22;;;;;;;1.77;0.60;;;22.20;95.40;;;;;;5075744;28;20172;-68
2022/05/18 01:58:50;;;;;;;3.97;0.73;;;21.80;95.30;;;;;;5075962;28;20223;-69
2022/05/18 02:01:17;;;;;;;2.17;0.73;;;21.80;94.60;;;;;;5075644;28;20249;-69
2022/05/18 02:03:44;;;;;;;0.73;0.40;;;21.50;96.90;;;;;;5075780;28;20173;-70
2022/05/18 02:06:12;;;;;;;4.33;0.47;;;21.50;96.20;;;;;;5074085;28;20276;-69
2022/05/18 02:08:40;;;;;;;1.40;0.60;;;22.00;97.20;;;;;;5075736;28;20180;-69
2022/05/18 02:11:12;;;;;;;3.20;0.60;;;21.90;95.00;;;;;;5075574;28;20641;-69
2022/05/18 02:13:40;;;;;;;1.57;0.60;;;21.70;94.50;;;;;;5075659;28;20200;-70
2022/05/18 02:16:08;;;;;;;1.50;0.50;;;22.10;94.20;;;;;;5075519;28;20176;-69
2022/05/18 02:18:35;;;;;;;1.27;0.40;;;22.40;97.10;;;;;;5075151;28;20273;-70
2022/05/18 02:21:05;;;;;;;3.23;0.53;;;22.70;93.40;;;;;;5074646;28;20172;-69
2022/05/18 02:23:33;;;;;;;1.70;0.50;;;22.70;93.80;;;;;;5074184;28;20632;-69
2022/05/18 02:26:06;;;;;;;0.97;0.40;;;22.60;93.80;;;;;;5075216;28;20168;-70
2022/05/18 02:28:33;;;;;;;2.73;0.63;;;22.10;93.20;;;;;;5075745;28;20171;-70
2022/05/18 02:31:01;;;;;;;1.43;0.43;;;22.90;94.10;;;;;;5075156;28;20171;-70
2022/05/18 02:33:28;;;;;;;0.60;0.50;;;22.30;92.30;;;;;;5075239;28;20559;-69
2022/05/18 02:35:55;;;;;;;5.40;0.50;;;22.40;94.00;;;;;;5075029;28;20240;-69
2022/05/18 02:38:23;;;;;;;5.83;1.10;;;22.50;92.20;;;;;;5075003;28;20652;-69
2022/05/18 02:40:50;;;;;;;1.50;0.57;;;22.30;92.50;;;;;;5073984;28;20186;-70
2022/05/18 02:43:18;;;;;;;4.07;0.63;;;22.90;92.80;;;;;;5074972;28;20539;-70
2022/05/18 02:45:45;;;;;;;1.70;0.83;;;22.80;93.20;;;;;;5074979;28;20175;-70
2022/05/18 02:48:12;;;;;;;1.87;0.40;;;23.20;92.20;;;;;;5074918;28;20534;-70
2022/05/18 02:50:40;;;;;;;3.73;0.73;;;23.20;92.90;;;;;;5073578;28;20187;-70
2022/05/18 02:53:07;;;;;;;2.20;0.67;;;23.10;90.50;;;;;;5074818;28;20198;-70
2022/05/18 02:58:20;;;;;;;2.70;0.87;;;22.90;88.60;;;;;;5074482;28;20227;-70
2022/05/18 03:00:48;;;;;;;1.73;0.70;;;22.90;91.20;;;;;;5074665;28;20180;-69
2022/05/18 03:03:15;;;;;;;2.27;0.60;;;23.30;90.60;;;;;;5074448;28;20176;-69
2022/05/18 03:05:42;;;;;;;0.80;0.40;;;23.20;91.60;;;;;;5074507;28;20176;-70
2022/05/18 03:08:10;;;;;;;2.20;0.43;;;23.20;91.40;;;;;;5074455;28;20180;-70
2022/05/18 03:10:37;;;;;;;3.80;0.40;;;22.90;90.50;;;;;;5074508;28;20176;-70
2022/05/18 03:13:04;;;;;;;2.87;0.70;;;23.40;91.70;;;;;;5074287;28;20576;-69
2022/05/18 03:15:32;;;;;;;2.23;0.50;;;23.20;89.80;;;;;;5074348;28;20180;-69
2022/05/18 03:17:59;;;;;;;1.57;0.60;;;23.50;91.00;;;;;;5074338;28;20262;-69
2022/05/18 03:25:56;;;;;;;2.90;0.57;;;23.80;91.50;;;;;;5074322;28;20191;-69
2022/05/18 03:28:24;;;;;;;4.83;0.60;;;23.70;88.40;;;;;;5074124;28;20183;-70
2022/05/18 03:30:51;;;;;;;2.17;0.40;;;23.50;92.10;;;;;;5073813;28;20190;-69
2022/05/18 03:33:18;;;;;;;1.40;0.60;;;23.20;90.30;;;;;;5074149;28;20176;-70
2022/05/18 03:35:48;;;;;;;0.93;0.40;;;23.10;90.90;;;;;;5073779;28;20265;-70
2022/05/18 03:38:17;;;;;;;1.70;0.50;;;23.30;91.20;;;;;;5073815;28;20554;-70
2022/05/18 03:40:44;;;;;;;2.50;0.40;;;24.10;90.40;;;;;;5074243;28;20278;-70
2022/05/18 03:43:12;;;;;;;1.60;0.50;;;23.70;90.40;;;;;;5073570;28;20179;-70
2022/05/18 03:45:40;;;;;;;1.03;0.60;;;23.80;90.80;;;;;;5073608;28;20180;-70
2022/05/18 03:48:11;;;;;;;0.50;0.30;;;24.10;88.90;;;;;;5073614;28;20572;-70
2022/05/18 03:50:39;;;;;;;0.30;0.30;;;24.30;90.10;;;;;;5073864;28;20172;-70
2022/05/18 03:53:08;;;;;;;5.63;0.97;;;23.60;88.80;;;;;;5073534;28;20175;-70
2022/05/18 03:55:37;;;;;;;0.77;0.30;;;23.30;89.30;;;;;;5073635;28;20176;-70
2022/05/18 03:58:04;;;;;;;2.40;0.40;;;23.40;92.10;;;;;;5073304;28;20238;-70
2022/05/18 04:00:33;;;;;;;4.33;0.50;;;23.30;90.70;;;;;;5073223;28;20788;-70
2022/05/18 04:03:01;;;;;;;2.00;0.47;;;23.60;92.00;;;;;;5073459;28;20513;-70
2022/05/18 04:05:30;;;;;;;2.10;0.47;;;23.30;90.90;;;;;;5073196;28;20183;-69
2022/05/18 04:07:57;;;;;;;0.87;0.40;;;23.30;91.40;;;;;;5073353;28;20249;-70
2022/05/18 04:10:25;;;;;;;2.77;0.40;;;23.60;91.80;;;;;;5071964;28;20176;-70
2022/05/18 04:12:52;;;;;;;1.80;0.50;;;23.80;92.60;;;;;;5073260;28;20775;-70
2022/05/18 04:15:19;;;;;;;3.13;0.50;;;23.60;92.10;;;;;;5073266;28;20175;-71
2022/05/18 04:17:48;;;;;;;1.27;0.40;;;22.90;90.60;;;;;;5073235;28;20175;-70
2022/05/18 04:20:19;;;;;;;5.40;0.70;;;22.80;91.70;;;;;;5071887;28;20285;-70
2022/05/18 04:22:48;;;;;;;0.40;0.40;;;22.90;93.60;;;;;;5073219;28;20203;-69
2022/05/18 04:25:23;;;;;;;2.80;0.40;;;23.20;92.50;;;;;;5072991;28;20288;-70
2022/05/18 04:27:50;;;;;;;0.70;0.50;;;23.40;90.90;;;;;;5073106;28;20531;-70
2022/05/18 04:30:19;;;;;;;0.67;0.43;;;23.10;92.10;;;;;;5072986;28;20184;-70
2022/05/18 04:32:47;;;;;;;1.27;0.40;;;22.60;91.40;;;;;;5073048;28;20251;-70
2022/05/18 04:35:17;;;;;;;2.50;0.67;;;22.90;93.00;;;;;;5073034;28;20641;-69
2022/05/18 04:37:44;;;;;;;1.43;0.40;;;23.40;91.90;;;;;;5072761;28;20168;-69
2022/05/18 04:40:12;;;;;;;0.77;0.30;;;22.90;90.50;;;;;;5072803;28;20222;-69
2022/05/18 04:42:40;;;;;;;0.87;0.50;;;22.90;92.30;;;;;;5072024;28;20176;-69
2022/05/18 04:45:11;;;;;;;1.07;0.53;;;22.70;95.10;;;;;;5072883;28;20241;-70
2022/05/18 04:47:38;;;;;;;0.90;0.57;;;22.70;97.10;;;;;;5072965;28;20171;-70
2022/05/18 04:50:07;;;;;;;1.63;0.60;;;22.10;99.40;;;;;;5072777;28;20215;-70
2022/05/18 04:52:34;;;;;;;3.13;0.50;;;21.80;99.10;;;;;;5072912;28;20214;-70
2022/05/18 04:55:03;;;;;;;1.10;0.40;;;21.90;99.90;;;;;;5072612;28;20188;-70
2022/05/18 04:57:30;;;;;;;1.17;0.40;;;21.70;99.90;;;;;;5072457;28;20231;-69
2022/05/18 04:59:58;;;;;;;2.67;0.57;;;21.30;99.90;;;;;;5072846;28;20311;-69
2022/05/18 05:02:25;;;;;;;1.47;0.50;;;21.30;99.90;;;;;;5072678;28;20176;-70
2022/05/18 05:04:52;;;;;;;3.10;0.53;;;21.50;99.90;;;;;;5072704;28;20550;-70
2022/05/18 05:07:20;;;;;;;3.00;0.60;;;21.50;99.90;;;;;;5072759;28;20307;-70
2022/05/18 05:09:47;;;;;;;2.93;0.60;;;21.30;99.90;;;;;;5072700;28;20233;-70
2022/05/18 05:12:14;;;;;;;1.93;1.10;;;21.30;99.90;;;;;;5072631;28;20174;-70
2022/05/18 05:14:42;;;;;;;1.53;0.50;;;21.60;99.90;;;;;;5072793;28;20191;-69
2022/05/18 05:17:09;;;;;;;0.70;0.50;;;21.40;99.90;;;;;;5072510;28;20207;-69
2022/05/18 05:19:37;;;;;;;0.53;0.50;;;21.20;99.90;;;;;;5088168;28;20772;-69
2022/05/18 05:22:05;;;;;;;4.60;0.70;;;20.90;99.90;;;;;;5072446;28;20176;-69
2022/05/18 05:24:33;;;;;;;1.77;0.50;;;20.60;99.90;;;;;;5072544;28;20180;-68
2022/05/18 05:27:00;;;;;;;1.57;0.53;;;20.60;99.90;;;;;;5072779;28;20258;-69
2022/05/18 05:29:27;;;;;;;1.07;0.50;;;20.40;99.90;;;;;;5072713;28;20183;-69
2022/05/18 05:31:55;;;;;;;3.83;0.80;;;20.30;99.90;;;;;;5072495;28;20172;-69
2022/05/18 05:34:22;;;;;;;1.23;0.40;;;20.30;99.90;;;;;;5072480;28;20172;-70
2022/05/18 05:36:49;;;;;;;1.17;0.50;;;20.00;99.90;;;;;;5072353;28;20178;-70
2022/05/18 05:39:18;;;;;;;2.73;0.80;;;20.00;99.90;;;;;;5072356;28;20213;-69
2022/05/18 05:41:46;;;;;;;3.33;0.60;;;19.80;99.90;;;;;;5072476;28;20600;-69
2022/05/18 05:44:14;;;;;;;1.30;0.60;;;19.70;99.90;;;;;;5072581;28;20532;-69
2022/05/18 05:46:41;;;;;;;1.60;0.80;;;19.60;99.90;;;;;;5072170;28;20211;-70
2022/05/18 05:49:10;;;;;;;2.30;0.90;;;19.50;99.90;;;;;;5072452;28;20171;-69
2022/05/18 05:51:37;;;;;;;2.70;0.60;;;19.30;99.90;;;;;;5072185;28;20179;-70
2022/05/18 05:54:05;;;;;;;4.13;0.77;;;19.10;99.90;;;;;;5073732;28;20253;-72
2022/05/18 05:56:33;;;;;;;1.17;0.50;;;19.10;99.90;;;;;;5075603;28;20596;-70
2022/05/18 05:59:00;;;;;;;1.63;0.70;;;19.10;99.90;;;;;;5075980;28;20257;-69
2022/05/18 06:01:27;;;;;;;2.00;0.53;;;19.20;99.90;;;;;;5075948;28;20175;-70
2022/05/18 06:03:59;;;;;;;1.13;0.70;;;19.00;99.90;;;;;;5075702;28;20208;-70
2022/05/18 06:06:26;;;;;;;0.60;0.40;;;19.00;99.90;;;;;;5076013;28;20237;-70
2022/05/18 06:08:53;;;;;;;1.13;0.63;;;18.90;99.90;;;;;;5075941;28;20267;-69
2022/05/18 06:11:20;;;;;;;3.17;0.70;;;18.90;99.90;;;;;;5075916;28;20241;-69
2022/05/18 06:13:48;;;;;;;3.10;0.70;;;18.80;99.90;;;;;;5075573;28;20184;-70
2022/05/18 06:16:15;;;;;;;5.63;0.70;;;18.70;99.90;;;;;;5075618;28;20199;-70
2022/05/18 06:18:42;;;;;;;2.73;0.50;;;18.70;99.90;;;;;;5075459;28;20208;-70
2022/05/18 06:21:10;;;;;;;0.90;0.87;;;18.70;99.90;;;;;;5074363;28;20176;-69
2022/05/18 06:23:37;;;;;;;1.67;0.73;;;18.60;99.90;;;;;;5075310;28;20181;-69
2022/05/18 06:26:06;;;;;;;0.60;0.50;;;18.60;99.90;;;;;;5075497;28;20192;-70
2022/05/18 06:28:36;;;;;;;1.10;0.60;;;18.60;99.90;;;;;;5075622;28;20198;-69
2022/05/18 06:31:04;;;;;;;2.60;0.80;;;18.50;99.90;;;;;;5074164;28;20179;-70
2022/05/18 06:33:32;;;;;;;2.10;0.60;;;18.40;99.90;;;;;;5075198;28;20200;-69
2022/05/18 06:35:59;;;;;;;3.17;0.67;;;18.40;99.90;;;;;;5075424;28;20559;-70
2022/05/18 06:38:26;;;;;;;4.73;0.80;;;18.30;99.90;;;;;;5075325;28;20164;-70
2022/05/18 06:43:40;;;;;;;2.80;0.90;;;18.10;99.90;;;;;;5075157;28;20262;-69
2022/05/18 06:46:08;;;;;;;4.27;0.80;;;18.00;99.90;;;;;;5075150;28;20196;-70
2022/05/18 06:48:35;;;;;;;1.60;0.50;;;17.90;99.90;;;;;;5075326;28;20539;-70
2022/05/18 06:51:02;;;;;;;3.83;0.90;;;17.80;99.90;;;;;;5074974;28;20176;-69
2022/05/18 06:53:29;;;;;;;4.37;0.80;;;17.70;99.90;;;;;;5074814;28;20240;-69
2022/05/18 06:55:57;;;;;;;0.67;0.60;;;17.60;99.90;;;;;;5074719;28;20177;-70
2022/05/18 06:58:25;;;;;;;4.37;0.83;;;17.40;99.90;;;;;;5073262;28;20756;-70
2022/05/18 07:00:53;;;;;;;2.97;0.80;;;17.30;99.90;;;;;;5074870;28;20607;-69
2022/05/18 07:03:20;;;;;;;1.37;0.80;;;17.20;99.90;;;;;;5074583;28;20539;-69
2022/05/18 07:05:47;;;;;;;5.50;1.13;;;16.90;99.90;;;;;;5073797;28;20184;-69
2022/05/18 07:08:14;;;;;;;3.97;0.90;;;16.70;99.90;;;;;;5074524;28;20164;-70
2022/05/18 07:10:42;;;;;;;5.97;1.43;;;16.50;99.90;;;;;;5074764;28;20178;-70
2022/05/18 07:13:10;;;;;;;4.07;1.33;;;16.60;99.90;;;;;;5074631;28;20168;-70
2022/05/18 07:15:37;;;;;;;4.63;1.20;;;16.80;99.90;;;;;;5076546;28;20184;-70
2022/05/18 07:18:05;;;;;;;4.67;1.33;;;16.80;99.90;;;;;;5076777;28;20232;-70
2022/05/18 07:20:32;;;;;;;2.17;1.17;;;16.70;99.90;;;;;;5074358;28;20344;-69
2022/05/18 07:22:59;;;;;;;6.53;1.43;;;16.70;99.90;;;;;;5072964;28;20256;-69
2022/05/18 07:25:27;;;;;;;4.20;1.30;;;16.60;99.90;;;;;;5072918;28;20180;-69
2022/05/18 07:27:55;;;;;;;4.90;1.57;;;16.50;99.90;;;;;;5074384;28;20173;-69
2022/05/18 07:30:22;;;;;;;5.03;1.70;;;16.40;99.90;;;;;;5074103;28;20646;-70
2022/05/18 07:32:49;;;;;;;4.93;1.77;;;16.40;99.90;;;;;;5074030;28;20273;-69
2022/05/18 07:35:16;;;;;;;6.53;1.70;;;16.20;99.90;;;;;;5074135;28;20174;-69
2022/05/18 07:37:44;;;;;;;4.97;1.67;;;16.30;99.90;;;;;;5074079;28;20175;-70
2022/05/18 07:40:13;;;;;;;3.47;1.70;;;16.20;99.90;;;;;;5073958;28;20360;-70
2022/05/18 07:42:40;;;;;;;3.83;1.60;;;16.20;99.90;;;;;;5074386;28;20535;-70
2022/05/18 07:45:08;;;;;;;4.87;1.70;;;16.30;99.90;;;;;;5074399;28;20271;-68
2022/05/18 07:47:36;;;;;;;4.87;1.87;;;16.10;99.90;;;;;;5074561;28;20261;-69
2022/05/18 07:50:04;;;;;;;3.80;1.60;;;15.90;99.90;;;;;;5073913;28;20199;-70
2022/05/18 07:52:31;;;;;;;4.57;1.40;;;15.70;99.90;;;;;;5073687;28;20266;-70
2022/05/18 07:54:58;;;;;;;6.43;1.83;;;15.50;99.90;;;;;;5073823;28;20314;-69
2022/05/18 07:57:27;;;;;;;8.97;1.60;;;15.30;99.90;;;;;;5073610;28;20706;-69
2022/05/18 07:59:59;;;;;;;3.17;1.20;;;15.10;99.90;;;;;;5073722;28;20226;-69
2022/05/18 08:02:32;;;;;;;2.30;1.30;;;15.00;99.90;;;;;;5073685;28;20250;-69
2022/05/18 08:05:00;;;;;;;2.10;1.17;;;15.00;99.90;;;;;;5073626;28;20665;-69
2022/05/18 08:07:28;;;;;;;7.77;1.17;;;15.00;99.90;;;;;;5073983;28;20214;-68
2022/05/18 08:15:29;;;;;;;4.10;1.20;;;15.20;99.90;;;;;;5073561;28;20330;-70
2022/05/18 08:17:56;;;;;;;4.60;1.40;;;15.20;99.90;;;;;;5073374;28;20184;-69
2022/05/18 08:20:24;;;;;;;1.90;1.00;;;15.30;99.90;;;;;;5073271;28;20226;-69
2022/05/18 08:22:53;;;;;;;3.20;1.13;;;15.40;99.90;;;;;;5073317;28;20176;-70
2022/05/18 08:25:21;;;;;;;1.73;1.00;;;15.40;99.90;;;;;;5073211;28;20222;-70
2022/05/18 08:27:50;;;;;;;2.03;0.90;;;15.60;99.90;;;;;;5073244;28;20175;-70
2022/05/18 08:30:20;;;;;;;1.70;0.87;;;15.80;99.90;;;;;;5073292;28;20175;-70
2022/05/18 08:32:48;;;;;;;2.33;1.10;;;15.90;99.90;;;;;;5073195;28;20345;-69
2022/05/18 08:35:16;;;;;;;1.90;1.00;;;16.10;99.90;;;;;;5073028;28;20233;-69
2022/05/18 08:37:48;;;;;;;3.20;1.20;;;16.10;99.90;;;;;;5072987;28;20226;-68
2022/05/18 08:40:43;;;;;;;1.87;0.90;;;16.10;99.90;;;;;;5072894;28;20222;-69
2022/05/18 08:43:18;;;;;;;2.70;1.00;;;16.10;99.90;;;;;;5073114;28;20259;-69
2022/05/18 08:45:48;;;;;;;2.53;0.93;;;16.10;99.90;;;;;;5073187;28;20199;-69
2022/05/18 08:48:38;;;;;;;1.23;0.83;;;16.00;99.90;;;;;;5072947;28;20179;-69
2022/05/18 08:51:16;;;;;;;2.33;0.90;;;16.00;99.90;;;;;;5073405;28;20175;-69
2022/05/18 08:53:54;;;;;;;5.13;0.90;;;16.00;99.90;;;;;;5073130;28;20167;-70
2022/05/18 08:56:37;;;;;;;2.93;1.10;;;16.10;99.90;;;;;;5072646;28;20655;-68
2022/05/18 08:59:10;;;;;;;2.13;1.00;;;16.00;99.90;;;;;;5072907;28;20214;-69
2022/05/18 09:01:41;;;;;;;3.67;0.93;;;15.90;99.90;;;;;;5073651;28;20222;-69
2022/05/18 09:04:12;;;;;;;2.37;0.97;;;15.80;99.90;;;;;;5073062;28;20172;-69
2022/05/18 09:07:03;;;;;;;1.50;1.00;;;15.60;99.90;;;;;;5071549;28;20183;-69
2022/05/18 09:10:13;;;;;;;3.30;1.30;;;15.60;99.90;;;;;;5066922;28;20194;-70
2022/05/18 09:12:48;;;;;;;2.17;1.10;;;15.40;99.90;;;;;;5071485;28;20222;-70
2022/05/18 09:15:19;;;;;;;2.60;1.30;;;15.30;99.90;;;;;;5071456;28;20180;-70
2022/05/18 09:17:56;;;;;;;2.67;1.30;;;15.20;99.90;;;;;;5072747;28;20342;-70
2022/05/18 09:21:10;;;;;;;4.00;1.47;;;15.10;99.90;;;;;;5072768;28;20215;-69
2022/05/18 09:23:44;;;;;;;3.77;1.20;;;15.00;99.90;;;;;;5075154;28;20634;-69
2022/05/18 09:26:53;;;;;;;1.53;1.10;;;14.90;99.90;;;;;;5072970;28;20184;-69
2022/05/18 09:29:45;;;;;;;5.40;1.80;;;14.80;99.90;;;;;;5074605;28;20171;-69
2022/05/18 09:32:31;;;;;;;4.37;1.67;;;14.70;99.90;;;;;;5076330;28;20178;-69
2022/05/18 09:35:12;;;;;;;6.93;1.10;;;14.80;99.90;;;;;;5075228;28;20187;-69
2022/05/18 09:37:46;;;;;;;1.37;1.07;;;14.90;99.90;;;;;;5076393;28;20250;-69
2022/05/18 09:40:19;;;;;;;2.93;1.20;;;15.30;99.90;;;;;;5076416;28;20299;-69
2022/05/18 09:43:17;;;;;;;2.57;1.13;;;15.30;99.90;;;;;;5076127;28;20663;-69
2022/05/18 09:45:49;;;;;;;3.77;0.97;;;15.20;99.90;;;;;;5060246;28;20195;-69
2022/05/18 09:48:34;;;;;;;6.77;1.30;;;15.20;99.90;;;;;;5076374;28;20180;-69
2022/05/18 09:51:02;;;;;;;1.23;1.00;;;15.10;99.90;;;;;;5076143;28;20664;-68
2022/05/18 09:53:31;;;;;;;3.23;1.13;;;15.00;99.90;;;;;;5075948;28;20255;-69
2022/05/18 09:55:58;;;;;;;4.53;1.23;;;14.90;99.90;;;;;;5074707;28;20182;-69
2022/05/18 09:58:38;;;;;;;5.00;2.97;;;14.90;99.90;;;;;;5076020;28;20231;-68
2022/05/18 10:10:14;;;;;;;3.23;1.10;;;15.00;99.90;;;;;;5076104;28;20190;-68
2022/05/18 10:12:53;;;;;;;2.47;0.80;;;15.10;99.90;;;;;;5075710;28;20647;-69
2022/05/18 10:15:38;;;;;;;4.27;1.00;;;15.10;99.90;;;;;;5076004;28;20198;-69
2022/05/18 10:18:12;;;;;;;2.27;0.70;;;15.00;99.90;;;;;;5075689;28;20591;-69
2022/05/18 10:20:41;;;;;;;1.90;0.60;;;15.00;99.90;;;;;;5075787;28;20697;-69
2022/05/18 10:23:40;;;;;;;0.90;0.70;;;14.90;99.90;;;;;;5075634;28;20183;-70
2022/05/18 10:26:23;;;;;;;1.00;0.83;;;14.90;99.90;;;;;;5067732;28;20270;-69
2022/05/18 10:29:13;;;;;;;2.23;0.70;;;14.90;99.90;;;;;;5074184;28;20190;-69
2022/05/18 10:31:46;;;;;;;1.27;0.60;;;14.80;99.90;;;;;;5069071;28;20195;-69
2022/05/18 10:34:17;;;;;;;1.87;0.70;;;14.80;99.90;;;;;;5075487;28;20786;-69
2022/05/18 10:36:48;;;;;;;1.20;0.50;;;14.80;99.90;;;;;;5075160;28;20261;-69
2022/05/18 10:39:32;;;;;;;1.33;0.70;;;14.70;99.90;;;;;;5073939;28;20541;-70
2022/05/18 10:42:02;;;;;;;2.03;0.63;;;14.60;99.90;;;;;;5074343;28;20171;-69
2022/05/18 10:44:34;;;;;;;1.63;0.70;;;14.50;99.90;;;;;;5074009;28;20211;-69
2022/05/18 10:47:17;;;;;;;2.40;0.80;;;14.40;99.90;;;;;;5075124;28;20210;-69
2022/05/18 10:49:46;;;;;;;1.47;0.80;;;14.50;99.90;;;;;;5075074;28;20176;-69
2022/05/18 10:52:33;;;;;;;1.10;0.60;;;14.50;99.90;;;;;;5075030;28;20175;-69
2022/05/18 10:55:14;;;;;;;1.33;0.70;;;14.50;99.90;;;;;;5075067;28;20176;-70
2022/05/18 10:58:05;;;;;;;1.03;0.50;;;14.70;99.90;;;;;;5074707;28;20722;-70
2022/05/18 11:00:37;;;;;;;1.27;0.60;;;14.80;99.90;;;;;;5074684;28;20249;-70
2022/05/18 11:03:04;;;;;;;2.37;0.60;;;14.90;99.90;;;;;;5074828;28;20190;-68
2022/05/18 11:05:32;;;;;;;2.60;0.70;;;14.80;99.90;;;;;;5074697;28;20183;-68
2022/05/18 11:08:00;;;;;;;2.07;0.70;;;14.80;99.90;;;;;;5074840;28;20255;-68
2022/05/18 11:10:49;;;;;;;1.43;0.60;;;14.80;99.90;;;;;;5074950;28;20171;-70
2022/05/18 11:13:46;;;;;;;1.93;0.70;;;14.60;99.90;;;;;;5074597;28;20173;-69
2022/05/18 11:16:31;;;;;;;0.90;0.60;;;14.60;99.90;;;;;;5074525;28;20179;-69
2022/05/18 11:19:30;;;;;;;0.97;0.50;;;14.50;99.90;;;;;;5074540;28;20201;-69
2022/05/18 11:22:15;;;;;;;1.50;0.60;;;14.40;99.90;;;;;;5074354;28;20269;-70
2022/05/18 11:25:11;;;;;;;1.27;0.70;;;14.40;99.90;;;;;;5074399;28;20183;-70
2022/05/18 11:27:45;;;;;;;0.73;0.60;;;14.40;99.90;;;;;;5074507;28;20215;-68
2022/05/18 11:30:24;;;;;;;2.10;0.70;;;14.30;99.90;;;;;;5074425;28;20178;-68
2022/05/18 11:33:14;;;;;;;0.83;0.50;;;14.30;99.90;;;;;;5074231;28;20175;-69
2022/05/18 11:36:03;;;;;;;1.17;0.50;;;14.20;99.90;;;;;;5074766;28;20228;-70
2022/05/18 11:38:48;;;;;;;1.43;0.60;;;14.10;99.90;;;;;;5074399;28;20178;-70
2022/05/18 11:41:30;;;;;;;1.60;0.67;;;14.10;99.90;;;;;;5074239;28;20195;-69
2022/05/18 11:44:05;;;;;;;0.63;0.60;;;14.00;99.90;;;;;;5074216;28;20174;-70
2022/05/18 11:46:52;;;;;;;1.43;0.70;;;14.00;99.90;;;;;;5074292;28;20174;-69
2022/05/18 11:49:33;;;;;;;2.50;0.63;;;14.00;99.90;;;;;;5073981;28;20171;-68
2022/05/18 11:52:37;;;;;;;2.13;0.70;;;14.00;99.90;;;;;;5072349;28;20198;-70
2022/05/18 11:55:55;;;;;;;1.03;0.70;;;13.90;99.90;;;;;;5074101;28;20186;-70
2022/05/18 11:58:49;;;;;;;1.43;0.67;;;14.00;99.90;;;;;;5031999;28;20584;-69
2022/05/18 12:01:42;;;;;;;0.70;0.67;;;14.00;99.90;;;;;;5073734;28;20239;-69
2022/05/18 12:04:48;;;;;;;3.70;0.50;;;13.90;99.90;;;;;;5073948;28;20173;-69
2022/05/18 12:07:29;;;;;;;1.97;0.73;;;14.00;99.90;;;;;;5068052;28;20191;-69
2022/05/18 12:10:03;;;;;;;3.50;0.63;;;14.00;99.90;;;;;;5073871;28;20174;-69
2022/05/18 12:12:45;;;;;;;4.20;0.90;;;14.00;99.90;;;;;;5073825;28;20179;-69
2022/05/18 12:15:39;;;;;;;2.23;1.00;;;13.90;99.90;;;;;;5072386;28;20184;-69
2022/05/18 12:18:25;;;;;;;1.60;0.60;;;13.80;99.90;;;;;;5073736;28;20219;-70
2022/05/18 12:21:02;;;;;;;2.03;0.60;;;13.70;99.90;;;;;;5073477;28;20254;-70
2022/05/18 12:23:35;;;;;;;3.30;0.80;;;13.70;99.90;;;;;;5073550;28;20265;-69
2022/05/18 12:26:03;;;;;;;2.40;0.67;;;13.70;99.90;;;;;;5073704;28;20515;-70
2022/05/18 12:28:31;;;;;;;1.70;1.10;;;13.60;99.90;;;;;;5073340;28;20628;-69
2022/05/18 12:31:01;;;;;;;1.73;0.60;;;13.40;99.90;;;;;;5073293;28;20179;-69
2022/05/18 12:33:34;;;;;;;1.80;0.70;;;13.40;99.90;;;;;;5073249;28;20179;-70
2022/05/18 12:36:15;;;;;;;1.93;0.70;;;13.40;99.90;;;;;;5072017;28;20182;-70
2022/05/18 12:39:14;;;;;;;1.47;0.90;;;13.40;99.90;;;;;;5073391;28;20225;-69
2022/05/18 12:41:49;;;;;;;2.33;0.80;;;13.50;99.90;;;;;;5073223;28;20216;-69
2022/05/18 12:44:57;;;;;;;1.00;0.70;;;13.60;99.90;;;;;;5073609;28;20164;-69
2022/05/18 12:47:52;;;;;;;1.43;0.70;;;13.60;99.90;;;;;;5050503;28;20194;-70
2022/05/18 12:50:41;;;;;;;1.40;0.70;;;13.60;99.90;;;;;;5073225;28;20182;-69
2022/05/18 12:53:52;;;;;;;4.10;0.80;;;13.50;99.90;;;;;;5073297;28;20189;-70
2022/05/18 12:56:44;;;;;;;2.70;0.73;;;13.40;99.90;;;;;;5073392;28;20686;-70
2022/05/18 12:59:16;;;;;;;2.33;0.63;;;13.30;99.90;;;;;;5051740;28;20700;-69
2022/05/18 13:01:46;;;;;;;0.80;0.60;;;13.30;99.90;;;;;;5073146;28;20180;-69
2022/05/18 13:04:17;;;;;;;1.80;0.70;;;13.30;99.90;;;;;;5074908;28;20671;-69
2022/05/18 13:07:24;;;;;;;2.50;0.50;;;13.30;99.90;;;;;;5077261;28;20188;-69
2022/05/18 13:10:09;;;;;;;2.37;0.70;;;13.30;99.90;;;;;;5065314;28;20189;-69
2022/05/18 13:12:45;;;;;;;1.83;0.77;;;13.30;99.90;;;;;;5077244;28;20269;-69
2022/05/18 13:15:34;;;;;;;2.03;0.70;;;13.20;99.90;;;;;;5077061;28;20265;-68
2022/05/18 13:18:09;;;;;;;2.83;0.60;;;13.20;99.90;;;;;;5077045;28;20766;-69
2022/05/18 13:20:51;;;;;;;7.23;0.80;;;13.10;99.90;;;;;;5076955;28;20307;-69
2022/05/18 13:23:33;;;;;;;1.27;0.73;;;13.00;99.90;;;;;;5076812;28;20541;-69
2022/05/18 13:26:30;;;;;;;2.40;0.90;;;12.90;99.90;;;;;;5077006;28;20193;-69
2022/05/18 13:29:23;;;;;;;1.07;0.77;;;12.90;99.90;;;;;;5076672;28;20178;-69
2022/05/18 13:32:01;;;;;;;0.93;0.70;;;12.90;99.90;;;;;;5076252;28;20660;-69
2022/05/18 13:34:47;;;;;;;1.63;0.77;;;12.90;99.90;;;;;;5075380;28;20651;-69
2022/05/18 13:37:15;;;;;;;2.43;0.80;;;12.80;99.90;;;;;;5076659;28;20537;-69
2022/05/18 13:39:48;;;;;;;2.37;0.80;;;12.70;99.90;;;;;;5076430;28;20216;-69
2022/05/18 13:42:22;;;;;;;1.40;0.80;;;12.60;99.90;;;;;;5076414;28;20189;-69
2022/05/18 13:45:05;;;;;;;1.87;0.87;;;12.60;99.90;;;;;;5076406;28;20583;-70
2022/05/18 13:47:41;;;;;;;1.50;0.90;;;12.50;99.90;;;;;;5076395;28;20200;-70